sensor_id;sensor_type;location;lat;lon;timestamp;P1;durP1;ratioP1;P2;durP2;ratioP2
787;SDS011;16074;42.708;23.312;2024-03-08T00:01:35;2.10;;;1.48;;
787;SDS011;16074;42.708;23.312;2024-03-08T00:04:00;3.33;;;1.80;;
787;SDS011;16074;42.708;23.312;2024-03-08T00:06:25;3.10;;;2.33;;
787;SDS011;16074;42.708;23.312;2024-03-08T00:08:52;3.75;;;2.30;;
787;SDS011;16074;42.708;23.312;2024-03-08T00:11:18;5.10;;;2.20;;
787;SDS011;16074;42.708;23.312;2024-03-08T00:13:44;3.50;;;2.40;;
787;SDS011;16074;42.708;23.312;2024-03-08T00:16:10;2.25;;;1.92;;
787;SDS011;16074;42.708;23.312;2024-03-08T00:18:35;2.80;;;1.85;;
787;SDS011;16074;42.708;23.312;2024-03-08T00:21:00;4.03;;;2.27;;
787;SDS011;16074;42.708;23.312;2024-03-08T00:23:25;2.00;;;1.30;;
787;SDS011;16074;42.708;23.312;2024-03-08T00:25:51;1.65;;;1.10;;
787;SDS011;16074;42.708;23.312;2024-03-08T00:28:16;2.00;;;1.20;;
787;SDS011;16074;42.708;23.312;2024-03-08T00:30:43;1.25;;;0.98;;
787;SDS011;16074;42.708;23.312;2024-03-08T00:33:08;2.20;;;1.50;;
787;SDS011;16074;42.708;23.312;2024-03-08T00:35:33;1.50;;;1.20;;
787;SDS011;16074;42.708;23.312;2024-03-08T00:37:59;2.00;;;1.05;;
787;SDS011;16074;42.708;23.312;2024-03-08T00:40:25;2.27;;;1.50;;
787;SDS011;16074;42.708;23.312;2024-03-08T00:42:50;1.10;;;1.00;;
787;SDS011;16074;42.708;23.312;2024-03-08T00:45:15;2.60;;;1.90;;
787;SDS011;16074;42.708;23.312;2024-03-08T00:47:40;3.50;;;2.60;;
787;SDS011;16074;42.708;23.312;2024-03-08T00:50:09;4.28;;;2.65;;
787;SDS011;16074;42.708;23.312;2024-03-08T00:52:34;4.47;;;2.92;;
787;SDS011;16074;42.708;23.312;2024-03-08T00:54:59;4.78;;;2.80;;
787;SDS011;16074;42.708;23.312;2024-03-08T00:57:25;2.83;;;2.23;;
787;SDS011;16074;42.708;23.312;2024-03-08T00:59:50;2.53;;;1.70;;
787;SDS011;16074;42.708;23.312;2024-03-08T01:02:15;2.63;;;1.55;;
787;SDS011;16074;42.708;23.312;2024-03-08T01:04:42;2.33;;;1.50;;
787;SDS011;16074;42.708;23.312;2024-03-08T01:07:07;1.77;;;1.30;;
787;SDS011;16074;42.708;23.312;2024-03-08T01:09:32;2.20;;;1.40;;
787;SDS011;16074;42.708;23.312;2024-03-08T01:11:58;2.43;;;1.27;;
787;SDS011;16074;42.708;23.312;2024-03-08T01:14:23;1.80;;;1.63;;
787;SDS011;16074;42.708;23.312;2024-03-08T01:16:51;2.65;;;1.38;;
787;SDS011;16074;42.708;23.312;2024-03-08T01:19:16;2.67;;;1.60;;
787;SDS011;16074;42.708;23.312;2024-03-08T01:21:42;2.88;;;1.60;;
787;SDS011;16074;42.708;23.312;2024-03-08T01:24:07;2.50;;;1.73;;
787;SDS011;16074;42.708;23.312;2024-03-08T01:26:32;2.37;;;1.67;;
787;SDS011;16074;42.708;23.312;2024-03-08T01:28:59;2.30;;;1.60;;
787;SDS011;16074;42.708;23.312;2024-03-08T01:31:24;3.10;;;1.52;;
787;SDS011;16074;42.708;23.312;2024-03-08T01:33:49;2.17;;;1.67;;
787;SDS011;16074;42.708;23.312;2024-03-08T01:36:16;2.33;;;1.77;;
787;SDS011;16074;42.708;23.312;2024-03-08T01:38:43;2.33;;;2.03;;
787;SDS011;16074;42.708;23.312;2024-03-08T01:41:08;3.27;;;2.23;;
787;SDS011;16074;42.708;23.312;2024-03-08T01:43:34;3.00;;;2.28;;
787;SDS011;16074;42.708;23.312;2024-03-08T01:45:59;3.75;;;2.75;;
787;SDS011;16074;42.708;23.312;2024-03-08T01:48:25;5.63;;;2.92;;
787;SDS011;16074;42.708;23.312;2024-03-08T01:50:51;5.57;;;3.47;;
787;SDS011;16074;42.708;23.312;2024-03-08T01:53:17;4.38;;;3.00;;
787;SDS011;16074;42.708;23.312;2024-03-08T01:55:42;4.28;;;3.22;;
787;SDS011;16074;42.708;23.312;2024-03-08T01:58:10;4.25;;;2.83;;
787;SDS011;16074;42.708;23.312;2024-03-08T02:00:36;3.83;;;2.85;;
787;SDS011;16074;42.708;23.312;2024-03-08T02:03:05;4.53;;;2.90;;
787;SDS011;16074;42.708;23.312;2024-03-08T02:05:30;5.40;;;3.28;;
787;SDS011;16074;42.708;23.312;2024-03-08T02:07:56;4.28;;;2.72;;
787;SDS011;16074;42.708;23.312;2024-03-08T02:10:22;3.65;;;2.50;;
787;SDS011;16074;42.708;23.312;2024-03-08T02:12:47;3.38;;;2.40;;
787;SDS011;16074;42.708;23.312;2024-03-08T02:15:12;2.80;;;1.90;;
787;SDS011;16074;42.708;23.312;2024-03-08T02:17:38;3.57;;;1.70;;
787;SDS011;16074;42.708;23.312;2024-03-08T02:20:03;2.30;;;1.73;;
787;SDS011;16074;42.708;23.312;2024-03-08T02:22:30;4.65;;;1.92;;
787;SDS011;16074;42.708;23.312;2024-03-08T02:24:55;2.33;;;1.10;;
787;SDS011;16074;42.708;23.312;2024-03-08T02:27:24;1.30;;;1.20;;
787;SDS011;16074;42.708;23.312;2024-03-08T02:29:54;0.82;;;0.82;;
787;SDS011;16074;42.708;23.312;2024-03-08T02:32:21;1.83;;;1.42;;
787;SDS011;16074;42.708;23.312;2024-03-08T02:34:47;1.10;;;1.00;;
787;SDS011;16074;42.708;23.312;2024-03-08T02:37:13;1.30;;;0.97;;
787;SDS011;16074;42.708;23.312;2024-03-08T02:39:38;1.50;;;0.70;;
787;SDS011;16074;42.708;23.312;2024-03-08T02:42:03;1.90;;;1.17;;
787;SDS011;16074;42.708;23.312;2024-03-08T02:44:28;0.80;;;0.60;;
787;SDS011;16074;42.708;23.312;2024-03-08T02:46:54;1.03;;;0.97;;
787;SDS011;16074;42.708;23.312;2024-03-08T02:49:21;1.05;;;0.90;;
787;SDS011;16074;42.708;23.312;2024-03-08T02:51:46;0.95;;;0.75;;
787;SDS011;16074;42.708;23.312;2024-03-08T02:54:11;0.97;;;0.70;;
787;SDS011;16074;42.708;23.312;2024-03-08T02:56:36;0.93;;;0.70;;
787;SDS011;16074;42.708;23.312;2024-03-08T02:59:02;1.43;;;1.20;;
787;SDS011;16074;42.708;23.312;2024-03-08T03:01:27;2.42;;;1.70;;
787;SDS011;16074;42.708;23.312;2024-03-08T03:03:53;3.20;;;2.05;;
787;SDS011;16074;42.708;23.312;2024-03-08T03:06:18;2.07;;;1.50;;
787;SDS011;16074;42.708;23.312;2024-03-08T03:08:46;2.75;;;1.73;;
787;SDS011;16074;42.708;23.312;2024-03-08T03:11:11;1.35;;;1.08;;
787;SDS011;16074;42.708;23.312;2024-03-08T03:13:38;1.55;;;1.08;;
787;SDS011;16074;42.708;23.312;2024-03-08T03:16:04;0.93;;;0.93;;
787;SDS011;16074;42.708;23.312;2024-03-08T03:18:31;1.67;;;0.60;;
787;SDS011;16074;42.708;23.312;2024-03-08T03:20:58;0.85;;;0.68;;
787;SDS011;16074;42.708;23.312;2024-03-08T03:23:23;1.25;;;0.50;;
787;SDS011;16074;42.708;23.312;2024-03-08T03:25:48;2.00;;;0.90;;
787;SDS011;16074;42.708;23.312;2024-03-08T03:28:14;2.95;;;0.75;;
787;SDS011;16074;42.708;23.312;2024-03-08T03:30:44;1.50;;;0.50;;
787;SDS011;16074;42.708;23.312;2024-03-08T03:33:11;1.00;;;0.60;;
787;SDS011;16074;42.708;23.312;2024-03-08T03:35:37;1.15;;;0.90;;
787;SDS011;16074;42.708;23.312;2024-03-08T03:38:03;2.77;;;1.00;;
787;SDS011;16074;42.708;23.312;2024-03-08T03:40:39;1.50;;;0.93;;
787;SDS011;16074;42.708;23.312;2024-03-08T03:43:10;1.13;;;1.00;;
787;SDS011;16074;42.708;23.312;2024-03-08T03:45:35;1.15;;;0.70;;
787;SDS011;16074;42.708;23.312;2024-03-08T03:48:07;1.20;;;0.80;;
787;SDS011;16074;42.708;23.312;2024-03-08T03:50:34;0.88;;;0.70;;
787;SDS011;16074;42.708;23.312;2024-03-08T03:52:59;0.88;;;0.82;;
787;SDS011;16074;42.708;23.312;2024-03-08T03:55:25;2.05;;;1.13;;
787;SDS011;16074;42.708;23.312;2024-03-08T03:57:50;1.17;;;0.90;;
787;SDS011;16074;42.708;23.312;2024-03-08T04:00:15;2.60;;;1.20;;
787;SDS011;16074;42.708;23.312;2024-03-08T04:02:41;2.08;;;1.38;;
787;SDS011;16074;42.708;23.312;2024-03-08T04:05:07;0.90;;;0.82;;
787;SDS011;16074;42.708;23.312;2024-03-08T04:07:33;1.73;;;1.27;;
787;SDS011;16074;42.708;23.312;2024-03-08T04:09:59;1.88;;;1.40;;
787;SDS011;16074;42.708;23.312;2024-03-08T04:12:24;2.97;;;1.87;;
787;SDS011;16074;42.708;23.312;2024-03-08T04:14:49;4.03;;;1.90;;
787;SDS011;16074;42.708;23.312;2024-03-08T04:17:15;1.70;;;1.00;;
787;SDS011;16074;42.708;23.312;2024-03-08T04:19:40;2.93;;;1.90;;
787;SDS011;16074;42.708;23.312;2024-03-08T04:22:06;2.83;;;1.73;;
787;SDS011;16074;42.708;23.312;2024-03-08T04:24:32;1.55;;;1.30;;
787;SDS011;16074;42.708;23.312;2024-03-08T04:26:59;3.42;;;1.85;;
787;SDS011;16074;42.708;23.312;2024-03-08T04:29:24;2.53;;;1.67;;
787;SDS011;16074;42.708;23.312;2024-03-08T04:31:49;3.77;;;2.17;;
787;SDS011;16074;42.708;23.312;2024-03-08T04:34:26;5.68;;;2.75;;
787;SDS011;16074;42.708;23.312;2024-03-08T04:36:53;5.38;;;3.05;;
787;SDS011;16074;42.708;23.312;2024-03-08T04:39:19;2.92;;;2.22;;
787;SDS011;16074;42.708;23.312;2024-03-08T04:41:44;5.17;;;2.93;;
787;SDS011;16074;42.708;23.312;2024-03-08T04:44:10;10.13;;;5.43;;
787;SDS011;16074;42.708;23.312;2024-03-08T04:46:36;7.32;;;3.80;;
787;SDS011;16074;42.708;23.312;2024-03-08T04:49:01;3.77;;;2.43;;
787;SDS011;16074;42.708;23.312;2024-03-08T04:51:26;4.80;;;2.70;;
787;SDS011;16074;42.708;23.312;2024-03-08T04:53:51;5.00;;;3.20;;
787;SDS011;16074;42.708;23.312;2024-03-08T04:56:17;7.50;;;4.03;;
787;SDS011;16074;42.708;23.312;2024-03-08T04:58:44;8.45;;;5.50;;
787;SDS011;16074;42.708;23.312;2024-03-08T05:01:12;7.07;;;4.10;;
787;SDS011;16074;42.708;23.312;2024-03-08T05:03:37;9.27;;;5.05;;
787;SDS011;16074;42.708;23.312;2024-03-08T05:06:03;10.55;;;5.15;;
787;SDS011;16074;42.708;23.312;2024-03-08T05:08:29;6.65;;;3.47;;
787;SDS011;16074;42.708;23.312;2024-03-08T05:10:54;8.57;;;5.03;;
787;SDS011;16074;42.708;23.312;2024-03-08T05:13:19;8.07;;;4.27;;
787;SDS011;16074;42.708;23.312;2024-03-08T05:15:47;5.70;;;3.70;;
787;SDS011;16074;42.708;23.312;2024-03-08T05:18:13;9.98;;;5.10;;
787;SDS011;16074;42.708;23.312;2024-03-08T05:20:39;5.13;;;3.05;;
787;SDS011;16074;42.708;23.312;2024-03-08T05:23:06;11.07;;;5.57;;
787;SDS011;16074;42.708;23.312;2024-03-08T05:25:31;14.95;;;7.72;;
787;SDS011;16074;42.708;23.312;2024-03-08T05:27:57;11.17;;;6.00;;
787;SDS011;16074;42.708;23.312;2024-03-08T05:30:23;10.73;;;5.65;;
787;SDS011;16074;42.708;23.312;2024-03-08T05:32:48;11.53;;;5.87;;
787;SDS011;16074;42.708;23.312;2024-03-08T05:35:15;8.98;;;4.63;;
787;SDS011;16074;42.708;23.312;2024-03-08T05:37:41;7.97;;;4.45;;
787;SDS011;16074;42.708;23.312;2024-03-08T05:40:07;8.85;;;4.40;;
787;SDS011;16074;42.708;23.312;2024-03-08T05:42:34;10.40;;;4.85;;
787;SDS011;16074;42.708;23.312;2024-03-08T05:44:59;10.00;;;4.67;;
787;SDS011;16074;42.708;23.312;2024-03-08T05:47:25;9.13;;;4.00;;
787;SDS011;16074;42.708;23.312;2024-03-08T05:49:51;6.85;;;4.22;;
787;SDS011;16074;42.708;23.312;2024-03-08T05:52:18;6.57;;;4.07;;
787;SDS011;16074;42.708;23.312;2024-03-08T05:54:43;8.10;;;4.47;;
787;SDS011;16074;42.708;23.312;2024-03-08T05:57:10;7.13;;;4.05;;
787;SDS011;16074;42.708;23.312;2024-03-08T05:59:37;7.60;;;4.38;;
787;SDS011;16074;42.708;23.312;2024-03-08T06:02:03;8.87;;;4.03;;
787;SDS011;16074;42.708;23.312;2024-03-08T06:04:28;9.73;;;4.20;;
787;SDS011;16074;42.708;23.312;2024-03-08T06:06:54;8.90;;;4.00;;
787;SDS011;16074;42.708;23.312;2024-03-08T06:09:20;8.30;;;4.22;;
787;SDS011;16074;42.708;23.312;2024-03-08T06:11:48;6.97;;;3.85;;
787;SDS011;16074;42.708;23.312;2024-03-08T06:14:13;7.15;;;3.35;;
787;SDS011;16074;42.708;23.312;2024-03-08T06:16:40;7.43;;;3.63;;
787;SDS011;16074;42.708;23.312;2024-03-08T06:19:05;9.43;;;3.63;;
787;SDS011;16074;42.708;23.312;2024-03-08T06:21:31;5.78;;;3.65;;
787;SDS011;16074;42.708;23.312;2024-03-08T06:23:57;10.40;;;4.93;;
787;SDS011;16074;42.708;23.312;2024-03-08T06:26:22;12.40;;;5.63;;
787;SDS011;16074;42.708;23.312;2024-03-08T06:28:48;10.60;;;4.55;;
787;SDS011;16074;42.708;23.312;2024-03-08T06:31:13;5.18;;;3.63;;
787;SDS011;16074;42.708;23.312;2024-03-08T06:33:39;7.65;;;4.40;;
787;SDS011;16074;42.708;23.312;2024-03-08T06:36:05;7.73;;;4.20;;
787;SDS011;16074;42.708;23.312;2024-03-08T06:38:30;10.23;;;5.63;;
787;SDS011;16074;42.708;23.312;2024-03-08T06:40:55;10.53;;;5.00;;
787;SDS011;16074;42.708;23.312;2024-03-08T06:43:21;10.85;;;5.72;;
787;SDS011;16074;42.708;23.312;2024-03-08T06:45:46;10.63;;;4.45;;
787;SDS011;16074;42.708;23.312;2024-03-08T06:48:18;10.10;;;5.18;;
787;SDS011;16074;42.708;23.312;2024-03-08T06:50:43;8.55;;;4.55;;
787;SDS011;16074;42.708;23.312;2024-03-08T06:53:09;8.15;;;4.63;;
787;SDS011;16074;42.708;23.312;2024-03-08T06:55:35;7.60;;;3.70;;
787;SDS011;16074;42.708;23.312;2024-03-08T06:58:00;10.07;;;4.60;;
787;SDS011;16074;42.708;23.312;2024-03-08T07:00:26;9.02;;;5.22;;
787;SDS011;16074;42.708;23.312;2024-03-08T07:02:53;11.57;;;5.90;;
787;SDS011;16074;42.708;23.312;2024-03-08T07:05:19;10.07;;;4.63;;
787;SDS011;16074;42.708;23.312;2024-03-08T07:07:44;8.18;;;4.00;;
787;SDS011;16074;42.708;23.312;2024-03-08T07:10:09;14.80;;;5.03;;
787;SDS011;16074;42.708;23.312;2024-03-08T07:12:40;9.02;;;5.20;;
787;SDS011;16074;42.708;23.312;2024-03-08T07:15:05;11.77;;;5.50;;
787;SDS011;16074;42.708;23.312;2024-03-08T07:17:31;8.75;;;5.03;;
787;SDS011;16074;42.708;23.312;2024-03-08T07:19:59;9.57;;;5.13;;
787;SDS011;16074;42.708;23.312;2024-03-08T07:22:24;8.05;;;4.22;;
787;SDS011;16074;42.708;23.312;2024-03-08T07:24:50;11.10;;;5.20;;
787;SDS011;16074;42.708;23.312;2024-03-08T07:27:35;7.88;;;4.47;;
787;SDS011;16074;42.708;23.312;2024-03-08T07:30:01;9.02;;;4.97;;
787;SDS011;16074;42.708;23.312;2024-03-08T07:32:27;8.75;;;4.57;;
787;SDS011;16074;42.708;23.312;2024-03-08T07:34:54;9.75;;;4.80;;
787;SDS011;16074;42.708;23.312;2024-03-08T07:37:20;9.55;;;5.38;;
787;SDS011;16074;42.708;23.312;2024-03-08T07:39:46;9.25;;;4.35;;
787;SDS011;16074;42.708;23.312;2024-03-08T07:42:11;7.60;;;4.40;;
787;SDS011;16074;42.708;23.312;2024-03-08T07:44:38;7.72;;;4.13;;
787;SDS011;16074;42.708;23.312;2024-03-08T07:47:03;11.35;;;5.60;;
787;SDS011;16074;42.708;23.312;2024-03-08T07:49:29;11.00;;;5.30;;
787;SDS011;16074;42.708;23.312;2024-03-08T07:51:55;10.95;;;5.35;;
787;SDS011;16074;42.708;23.312;2024-03-08T07:54:20;10.85;;;5.63;;
787;SDS011;16074;42.708;23.312;2024-03-08T07:56:46;11.43;;;6.23;;
787;SDS011;16074;42.708;23.312;2024-03-08T07:59:12;10.77;;;5.47;;
787;SDS011;16074;42.708;23.312;2024-03-08T08:01:37;9.50;;;5.15;;
787;SDS011;16074;42.708;23.312;2024-03-08T08:04:02;7.55;;;4.72;;
787;SDS011;16074;42.708;23.312;2024-03-08T08:06:28;14.43;;;4.83;;
787;SDS011;16074;42.708;23.312;2024-03-08T08:08:56;9.00;;;4.30;;
787;SDS011;16074;42.708;23.312;2024-03-08T08:11:22;8.98;;;5.32;;
787;SDS011;16074;42.708;23.312;2024-03-08T08:13:47;9.60;;;5.10;;
787;SDS011;16074;42.708;23.312;2024-03-08T08:16:12;7.82;;;4.25;;
787;SDS011;16074;42.708;23.312;2024-03-08T08:18:38;6.65;;;4.72;;
787;SDS011;16074;42.708;23.312;2024-03-08T08:21:04;9.68;;;4.07;;
787;SDS011;16074;42.708;23.312;2024-03-08T08:23:31;6.43;;;3.63;;
787;SDS011;16074;42.708;23.312;2024-03-08T08:25:56;6.17;;;3.33;;
787;SDS011;16074;42.708;23.312;2024-03-08T08:28:21;8.33;;;2.90;;
787;SDS011;16074;42.708;23.312;2024-03-08T08:30:47;5.87;;;3.00;;
787;SDS011;16074;42.708;23.312;2024-03-08T08:33:13;4.97;;;2.70;;
787;SDS011;16074;42.708;23.312;2024-03-08T08:35:39;5.55;;;3.15;;
787;SDS011;16074;42.708;23.312;2024-03-08T08:38:04;5.57;;;2.37;;
787;SDS011;16074;42.708;23.312;2024-03-08T08:40:30;4.65;;;3.08;;
787;SDS011;16074;42.708;23.312;2024-03-08T08:42:57;5.82;;;3.17;;
787;SDS011;16074;42.708;23.312;2024-03-08T08:45:24;5.45;;;3.28;;
787;SDS011;16074;42.708;23.312;2024-03-08T08:47:50;7.00;;;3.40;;
787;SDS011;16074;42.708;23.312;2024-03-08T08:50:15;4.60;;;2.60;;
787;SDS011;16074;42.708;23.312;2024-03-08T08:52:41;3.70;;;2.50;;
787;SDS011;16074;42.708;23.312;2024-03-08T08:55:08;4.38;;;2.30;;
787;SDS011;16074;42.708;23.312;2024-03-08T08:57:34;3.28;;;2.55;;
787;SDS011;16074;42.708;23.312;2024-03-08T09:00:00;5.63;;;2.90;;
787;SDS011;16074;42.708;23.312;2024-03-08T09:02:25;3.25;;;2.40;;
787;SDS011;16074;42.708;23.312;2024-03-08T09:04:51;2.85;;;2.10;;
787;SDS011;16074;42.708;23.312;2024-03-08T09:07:16;4.28;;;2.15;;
787;SDS011;16074;42.708;23.312;2024-03-08T09:09:44;3.00;;;2.20;;
787;SDS011;16074;42.708;23.312;2024-03-08T09:12:09;2.42;;;2.00;;
787;SDS011;16074;42.708;23.312;2024-03-08T09:17:03;1.98;;;1.58;;
787;SDS011;16074;42.708;23.312;2024-03-08T09:19:29;2.33;;;1.60;;
787;SDS011;16074;42.708;23.312;2024-03-08T09:21:55;4.07;;;2.03;;
787;SDS011;16074;42.708;23.312;2024-03-08T09:24:20;5.38;;;2.45;;
787;SDS011;16074;42.708;23.312;2024-03-08T09:26:46;6.27;;;2.30;;
787;SDS011;16074;42.708;23.312;2024-03-08T09:29:11;3.43;;;2.20;;
787;SDS011;16074;42.708;23.312;2024-03-08T09:31:36;2.60;;;1.60;;
787;SDS011;16074;42.708;23.312;2024-03-08T09:34:03;2.08;;;1.63;;
787;SDS011;16074;42.708;23.312;2024-03-08T09:36:28;3.95;;;2.00;;
787;SDS011;16074;42.708;23.312;2024-03-08T09:38:53;2.90;;;1.73;;
787;SDS011;16074;42.708;23.312;2024-03-08T09:41:19;2.13;;;1.80;;
787;SDS011;16074;42.708;23.312;2024-03-08T09:43:44;3.87;;;1.80;;
787;SDS011;16074;42.708;23.312;2024-03-08T09:46:10;2.15;;;1.67;;
787;SDS011;16074;42.708;23.312;2024-03-08T09:48:36;4.00;;;2.30;;
787;SDS011;16074;42.708;23.312;2024-03-08T09:51:02;4.53;;;2.40;;
787;SDS011;16074;42.708;23.312;2024-03-08T09:53:28;2.90;;;2.00;;
787;SDS011;16074;42.708;23.312;2024-03-08T09:55:53;3.28;;;2.03;;
787;SDS011;16074;42.708;23.312;2024-03-08T09:58:18;2.67;;;2.20;;
787;SDS011;16074;42.708;23.312;2024-03-08T10:00:59;2.33;;;1.90;;
787;SDS011;16074;42.708;23.312;2024-03-08T10:03:29;4.35;;;2.63;;
787;SDS011;16074;42.708;23.312;2024-03-08T10:05:56;2.95;;;2.38;;
787;SDS011;16074;42.708;23.312;2024-03-08T10:08:25;3.10;;;2.33;;
787;SDS011;16074;42.708;23.312;2024-03-08T10:10:50;3.80;;;2.33;;
787;SDS011;16074;42.708;23.312;2024-03-08T10:13:16;3.00;;;1.98;;
787;SDS011;16074;42.708;23.312;2024-03-08T10:15:43;2.55;;;1.80;;
787;SDS011;16074;42.708;23.312;2024-03-08T10:18:09;2.78;;;1.60;;
787;SDS011;16074;42.708;23.312;2024-03-08T10:20:35;2.58;;;1.63;;
787;SDS011;16074;42.708;23.312;2024-03-08T10:23:01;1.80;;;1.42;;
787;SDS011;16074;42.708;23.312;2024-03-08T10:25:28;3.10;;;1.80;;
787;SDS011;16074;42.708;23.312;2024-03-08T10:27:55;4.38;;;1.92;;
787;SDS011;16074;42.708;23.312;2024-03-08T10:30:20;2.07;;;1.80;;
787;SDS011;16074;42.708;23.312;2024-03-08T10:32:47;1.33;;;1.23;;
787;SDS011;16074;42.708;23.312;2024-03-08T10:35:12;1.52;;;1.27;;
787;SDS011;16074;42.708;23.312;2024-03-08T10:37:47;1.27;;;1.00;;
787;SDS011;16074;42.708;23.312;2024-03-08T10:40:16;1.42;;;1.20;;
787;SDS011;16074;42.708;23.312;2024-03-08T10:45:15;2.50;;;1.90;;
787;SDS011;16074;42.708;23.312;2024-03-08T10:47:42;1.92;;;1.50;;
787;SDS011;16074;42.708;23.312;2024-03-08T10:50:18;1.95;;;1.42;;
787;SDS011;16074;42.708;23.312;2024-03-08T10:52:49;1.48;;;1.30;;
787;SDS011;16074;42.708;23.312;2024-03-08T10:55:15;3.25;;;1.85;;
787;SDS011;16074;42.708;23.312;2024-03-08T10:57:41;3.50;;;1.67;;
787;SDS011;16074;42.708;23.312;2024-03-08T11:00:07;3.40;;;2.08;;
787;SDS011;16074;42.708;23.312;2024-03-08T11:02:36;4.32;;;1.52;;
787;SDS011;16074;42.708;23.312;2024-03-08T11:05:03;2.20;;;1.45;;
787;SDS011;16074;42.708;23.312;2024-03-08T11:07:35;4.28;;;1.60;;
787;SDS011;16074;42.708;23.312;2024-03-08T11:10:03;2.08;;;1.15;;
787;SDS011;16074;42.708;23.312;2024-03-08T11:12:36;2.38;;;1.70;;
787;SDS011;16074;42.708;23.312;2024-03-08T11:15:02;1.58;;;1.20;;
787;SDS011;16074;42.708;23.312;2024-03-08T11:19:59;2.47;;;1.60;;
787;SDS011;16074;42.708;23.312;2024-03-08T11:22:31;2.33;;;1.58;;
787;SDS011;16074;42.708;23.312;2024-03-08T11:25:03;2.60;;;2.28;;
787;SDS011;16074;42.708;23.312;2024-03-08T11:27:33;3.38;;;1.80;;
787;SDS011;16074;42.708;23.312;2024-03-08T11:30:02;3.08;;;1.23;;
787;SDS011;16074;42.708;23.312;2024-03-08T11:32:37;2.72;;;1.80;;
787;SDS011;16074;42.708;23.312;2024-03-08T11:35:06;2.28;;;1.55;;
787;SDS011;16074;42.708;23.312;2024-03-08T11:37:33;2.53;;;1.20;;
787;SDS011;16074;42.708;23.312;2024-03-08T11:40:02;1.48;;;1.20;;
787;SDS011;16074;42.708;23.312;2024-03-08T11:42:37;1.40;;;1.13;;
787;SDS011;16074;42.708;23.312;2024-03-08T11:45:07;1.20;;;0.95;;
787;SDS011;16074;42.708;23.312;2024-03-08T11:47:34;1.67;;;1.30;;
787;SDS011;16074;42.708;23.312;2024-03-08T11:50:00;1.42;;;1.27;;
787;SDS011;16074;42.708;23.312;2024-03-08T11:52:25;2.90;;;1.20;;
787;SDS011;16074;42.708;23.312;2024-03-08T11:54:54;1.55;;;0.90;;
787;SDS011;16074;42.708;23.312;2024-03-08T11:57:25;1.15;;;1.00;;
787;SDS011;16074;42.708;23.312;2024-03-08T12:02:15;1.97;;;1.40;;
787;SDS011;16074;42.708;23.312;2024-03-08T12:04:41;1.83;;;1.13;;
787;SDS011;16074;42.708;23.312;2024-03-08T12:07:09;1.10;;;1.00;;
787;SDS011;16074;42.708;23.312;2024-03-08T12:09:37;2.42;;;1.40;;
787;SDS011;16074;42.708;23.312;2024-03-08T12:12:03;1.60;;;1.40;;
787;SDS011;16074;42.708;23.312;2024-03-08T12:14:32;1.77;;;1.10;;
787;SDS011;16074;42.708;23.312;2024-03-08T12:16:58;2.60;;;1.30;;
787;SDS011;16074;42.708;23.312;2024-03-08T12:19:25;1.20;;;1.10;;
787;SDS011;16074;42.708;23.312;2024-03-08T12:21:51;1.37;;;1.20;;
787;SDS011;16074;42.708;23.312;2024-03-08T12:24:16;1.50;;;1.10;;
787;SDS011;16074;42.708;23.312;2024-03-08T12:26:45;1.85;;;1.50;;
787;SDS011;16074;42.708;23.312;2024-03-08T12:29:26;1.60;;;1.17;;
787;SDS011;16074;42.708;23.312;2024-03-08T12:31:53;2.80;;;1.70;;
787;SDS011;16074;42.708;23.312;2024-03-08T12:34:19;3.15;;;1.70;;
787;SDS011;16074;42.708;23.312;2024-03-08T12:36:48;2.22;;;1.67;;
787;SDS011;16074;42.708;23.312;2024-03-08T12:39:15;4.10;;;3.25;;
787;SDS011;16074;42.708;23.312;2024-03-08T12:41:41;9.32;;;4.93;;
787;SDS011;16074;42.708;23.312;2024-03-08T12:44:06;6.30;;;3.38;;
787;SDS011;16074;42.708;23.312;2024-03-08T12:46:36;2.88;;;1.73;;
787;SDS011;16074;42.708;23.312;2024-03-08T12:49:01;1.38;;;1.20;;
787;SDS011;16074;42.708;23.312;2024-03-08T12:51:29;1.98;;;1.17;;
787;SDS011;16074;42.708;23.312;2024-03-08T12:53:55;3.33;;;1.48;;
787;SDS011;16074;42.708;23.312;2024-03-08T12:56:31;2.03;;;1.40;;
787;SDS011;16074;42.708;23.312;2024-03-08T12:58:57;4.80;;;2.70;;
787;SDS011;16074;42.708;23.312;2024-03-08T13:01:23;4.45;;;2.70;;
787;SDS011;16074;42.708;23.312;2024-03-08T13:03:48;2.00;;;1.30;;
787;SDS011;16074;42.708;23.312;2024-03-08T13:06:14;2.58;;;1.40;;
787;SDS011;16074;42.708;23.312;2024-03-08T13:08:41;3.30;;;1.95;;
787;SDS011;16074;42.708;23.312;2024-03-08T13:11:07;2.03;;;1.45;;
787;SDS011;16074;42.708;23.312;2024-03-08T13:13:32;1.40;;;1.23;;
787;SDS011;16074;42.708;23.312;2024-03-08T13:16:00;2.58;;;1.17;;
787;SDS011;16074;42.708;23.312;2024-03-08T13:18:26;2.63;;;1.30;;
787;SDS011;16074;42.708;23.312;2024-03-08T13:20:52;1.95;;;1.10;;
787;SDS011;16074;42.708;23.312;2024-03-08T13:23:18;1.98;;;1.45;;
787;SDS011;16074;42.708;23.312;2024-03-08T13:25:43;2.13;;;1.10;;
787;SDS011;16074;42.708;23.312;2024-03-08T13:28:09;2.28;;;1.27;;
787;SDS011;16074;42.708;23.312;2024-03-08T13:30:34;1.48;;;1.38;;
787;SDS011;16074;42.708;23.312;2024-03-08T13:33:00;3.47;;;1.10;;
787;SDS011;16074;42.708;23.312;2024-03-08T13:35:25;1.65;;;1.27;;
787;SDS011;16074;42.708;23.312;2024-03-08T13:37:52;1.75;;;1.33;;
787;SDS011;16074;42.708;23.312;2024-03-08T13:40:19;4.18;;;1.10;;
787;SDS011;16074;42.708;23.312;2024-03-08T13:42:45;1.60;;;1.15;;
787;SDS011;16074;42.708;23.312;2024-03-08T13:45:11;1.65;;;0.90;;
787;SDS011;16074;42.708;23.312;2024-03-08T13:47:36;1.20;;;1.10;;
787;SDS011;16074;42.708;23.312;2024-03-08T13:50:02;6.18;;;1.20;;
787;SDS011;16074;42.708;23.312;2024-03-08T13:52:27;3.22;;;1.10;;
787;SDS011;16074;42.708;23.312;2024-03-08T13:54:56;2.25;;;1.30;;
787;SDS011;16074;42.708;23.312;2024-03-08T13:57:22;1.50;;;1.33;;
787;SDS011;16074;42.708;23.312;2024-03-08T13:59:48;1.53;;;1.27;;
787;SDS011;16074;42.708;23.312;2024-03-08T14:02:14;2.03;;;1.27;;
787;SDS011;16074;42.708;23.312;2024-03-08T14:04:39;2.45;;;1.50;;
787;SDS011;16074;42.708;23.312;2024-03-08T14:07:06;2.05;;;1.55;;
787;SDS011;16074;42.708;23.312;2024-03-08T14:09:33;2.58;;;1.33;;
787;SDS011;16074;42.708;23.312;2024-03-08T14:12:02;2.78;;;1.40;;
787;SDS011;16074;42.708;23.312;2024-03-08T14:14:28;2.95;;;1.27;;
787;SDS011;16074;42.708;23.312;2024-03-08T14:16:53;3.80;;;1.40;;
787;SDS011;16074;42.708;23.312;2024-03-08T14:19:22;4.45;;;1.40;;
787;SDS011;16074;42.708;23.312;2024-03-08T14:21:48;1.53;;;1.37;;
787;SDS011;16074;42.708;23.312;2024-03-08T14:24:14;2.60;;;1.37;;
787;SDS011;16074;42.708;23.312;2024-03-08T14:26:40;2.20;;;1.48;;
787;SDS011;16074;42.708;23.312;2024-03-08T14:29:05;2.63;;;1.65;;
787;SDS011;16074;42.708;23.312;2024-03-08T14:31:31;2.58;;;1.40;;
787;SDS011;16074;42.708;23.312;2024-03-08T14:33:57;2.90;;;1.77;;
787;SDS011;16074;42.708;23.312;2024-03-08T14:36:23;1.98;;;1.30;;
787;SDS011;16074;42.708;23.312;2024-03-08T14:38:50;2.30;;;1.27;;
787;SDS011;16074;42.708;23.312;2024-03-08T14:41:15;2.47;;;1.43;;
787;SDS011;16074;42.708;23.312;2024-03-08T14:43:44;2.87;;;2.00;;
787;SDS011;16074;42.708;23.312;2024-03-08T14:46:18;2.72;;;2.00;;
787;SDS011;16074;42.708;23.312;2024-03-08T14:48:52;4.22;;;2.47;;
787;SDS011;16074;42.708;23.312;2024-03-08T14:51:18;2.42;;;2.10;;
787;SDS011;16074;42.708;23.312;2024-03-08T14:56:11;4.22;;;2.30;;
787;SDS011;16074;42.708;23.312;2024-03-08T14:58:41;3.72;;;2.10;;
787;SDS011;16074;42.708;23.312;2024-03-08T15:01:06;3.08;;;2.30;;
787;SDS011;16074;42.708;23.312;2024-03-08T15:03:34;3.10;;;2.10;;
787;SDS011;16074;42.708;23.312;2024-03-08T15:06:01;4.22;;;2.08;;
787;SDS011;16074;42.708;23.312;2024-03-08T15:08:26;4.93;;;2.27;;